Time,TemperatureF,DewpointF,PressureIn,WindDirection,WindDirectionDegrees,WindSpeedMPH,WindSpeedGustMPH,Humidity,HourlyPrecipIn,Conditions,Clouds,dailyrainin,SolarRadiationWatts/m^2,SoftwareType,DateUTC
2013-02-25 00:00:00,50.1,49.3,30.00,SE,139,0.0,0.0,97,0.01,SCT,SKC,0.37,0.0,WeatherDisplay:10.37,2013-02-25 05:00:00,
2013-02-25 00:05:00,50.0,49.2,30.01,SE,139,0.0,0.0,97,0.00,RA,SKC,0.00,0.0,WeatherDisplay:10.37,2013-02-25 05:05:00,
2013-02-25 00:10:00,50.1,49.3,30.00,SE,139,0.0,0.0,97,0.00,RA,SKC,0.00,0.0,WeatherDisplay:10.37,2013-02-25 05:10:00,
2013-02-25 00:15:00,50.0,49.2,30.00,SE,139,0.0,0.0,97,0.00,BKN,SKC,0.00,0.0,WeatherDisplay:10.37,2013-02-25 05:15:00,
2013-02-25 00:20:00,49.9,49.1,30.00,SE,139,0.0,0.0,97,0.00,BKN,SKC,0.00,0.0,WeatherDisplay:10.37,2013-02-25 05:20:00,
2013-02-25 00:25:00,49.9,49.1,30.00,SE,139,0.0,0.0,97,0.00,BKN,SKC,0.00,0.0,WeatherDisplay:10.37,2013-02-25 05:25:00,
2013-02-25 00:30:00,49.9,49.1,30.00,SE,139,0.0,0.0,97,0.00,BKN,SKC,0.00,0.0,WeatherDisplay:10.37,2013-02-25 05:30:00,
2013-02-25 00:35:00,50.0,49.2,30.00,SE,139,0.0,0.0,97,0.01,RA,SKC,0.01,0.0,WeatherDisplay:10.37,2013-02-25 05:35:00,
2013-02-25 00:40:00,50.0,49.2,29.99,SE,139,0.0,0.0,97,0.01,RA,SKC,0.01,0.0,WeatherDisplay:10.37,2013-02-25 05:40:00,
2013-02-25 00:45:00,50.0,49.2,29.99,SE,139,0.0,0.0,97,0.01,BKN,SKC,0.01,0.0,WeatherDisplay:10.37,2013-02-25 05:45:00,
2013-02-25 00:50:00,49.9,49.1,29.99,SE,139,0.0,0.0,97,0.01,BKN,SKC,0.01,0.0,WeatherDisplay:10.37,2013-02-25 05:50:00,
2013-02-25 00:55:00,49.8,49.0,29.99,SE,139,0.0,0.0,97,0.01,BKN,SKC,0.01,0.0,WeatherDisplay:10.37,2013-02-25 05:55:00,
2013-02-25 01:00:00,49.7,48.9,29.98,SE,139,0.0,0.0,97,0.01,BKN,SKC,0.01,0.0,WeatherDisplay:10.37,2013-02-25 06:00:00,
2013-02-25 01:05:00,49.7,48.9,29.98,SE,139,0.0,0.0,97,0.01,BKN,SKC,0.01,0.0,WeatherDisplay:10.37,2013-02-25 06:05:00,
2013-02-25 01:10:00,49.6,48.8,29.98,SE,139,0.0,0.0,97,0.01,BKN,SKC,0.01,0.0,WeatherDisplay:10.37,2013-02-25 06:10:00,
2013-02-25 01:15:00,49.5,48.7,29.98,SE,139,0.0,0.0,97,0.01,BKN,SKC,0.01,0.0,WeatherDisplay:10.37,2013-02-25 06:15:00,
2013-02-25 01:20:00,49.4,48.6,29.98,SE,139,0.0,0.0,97,0.01,BKN,SKC,0.01,0.0,WeatherDisplay:10.37,2013-02-25 06:20:00,
2013-02-25 01:25:00,49.4,48.6,29.98,SE,139,0.0,0.0,97,0.01,BKN,SKC,0.01,0.0,WeatherDisplay:10.37,2013-02-25 06:25:00,
2013-02-25 01:30:00,49.2,48.4,29.97,SE,139,0.0,0.0,97,0.01,BKN,SKC,0.01,0.0,WeatherDisplay:10.37,2013-02-25 06:30:00,
2013-02-25 01:35:00,49.1,48.3,29.97,SE,139,0.0,0.0,97,0.00,BKN,SKC,0.01,0.0,WeatherDisplay:10.37,2013-02-25 06:35:00,
2013-02-25 01:40:00,49.1,48.6,29.97,SE,139,0.0,0.0,98,0.00,BKN,SKC,0.01,0.0,WeatherDisplay:10.37,2013-02-25 06:40:00,
2013-02-25 01:45:00,49.1,48.6,29.97,SE,139,0.0,0.0,98,0.00,BKN,SKC,0.01,0.0,WeatherDisplay:10.37,2013-02-25 06:45:00,
2013-02-25 01:50:00,49.0,48.2,29.97,SE,139,0.0,0.0,97,0.00,BKN,SKC,0.01,0.0,WeatherDisplay:10.37,2013-02-25 06:50:00,
2013-02-25 01:55:00,49.0,48.2,29.98,SE,139,0.0,0.0,97,0.00,BKN,SKC,0.01,0.0,WeatherDisplay:10.37,2013-02-25 06:55:00,
2013-02-25 02:00:00,48.8,48.0,29.98,SE,139,0.0,0.0,97,0.00,BKN,SKC,0.01,0.0,WeatherDisplay:10.37,2013-02-25 07:00:00,
2013-02-25 02:05:00,48.9,48.1,29.97,SE,139,0.0,0.0,97,0.00,BKN,SKC,0.01,0.0,WeatherDisplay:10.37,2013-02-25 07:05:00,
2013-02-25 02:10:00,48.9,48.4,29.97,SE,139,0.0,0.0,98,0.00,BKN,SKC,0.01,0.0,WeatherDisplay:10.37,2013-02-25 07:10:00,
2013-02-25 02:15:00,48.7,48.2,29.97,SE,139,0.0,0.0,98,0.00,BKN,SKC,0.01,0.0,WeatherDisplay:10.37,2013-02-25 07:15:00,
2013-02-25 02:20:00,48.7,48.2,29.96,SE,139,0.0,0.0,98,0.00,BKN,SKC,0.01,0.0,WeatherDisplay:10.37,2013-02-25 07:20:00,
2013-02-25 02:25:00,48.6,48.1,29.97,SE,139,0.0,0.0,98,0.00,BKN,SKC,0.01,0.0,WeatherDisplay:10.37,2013-02-25 07:25:00,
2013-02-25 02:30:00,48.6,48.1,29.97,SE,139,0.0,0.0,98,0.00,BKN,SKC,0.01,0.0,WeatherDisplay:10.37,2013-02-25 07:30:00,
2013-02-25 02:35:00,48.6,48.1,29.97,SE,139,0.0,0.0,98,0.00,BKN,SKC,0.01,0.0,WeatherDisplay:10.37,2013-02-25 07:35:00,
2013-02-25 02:40:00,48.7,48.2,29.97,SE,139,0.0,0.0,98,0.00,BKN,SKC,0.01,0.0,WeatherDisplay:10.37,2013-02-25 07:40:00,
2013-02-25 02:45:00,48.6,48.1,29.97,SE,139,0.0,0.0,98,0.00,BKN,SKC,0.01,0.0,WeatherDisplay:10.37,2013-02-25 07:45:00,
2013-02-25 02:50:00,48.6,48.1,29.97,SE,139,0.0,0.0,98,0.01,RA,SKC,0.02,0.0,WeatherDisplay:10.37,2013-02-25 07:50:00,
2013-02-25 02:55:00,48.6,48.1,29.97,SE,139,0.0,0.0,98,0.01,RA,SKC,0.02,0.0,WeatherDisplay:10.37,2013-02-25 07:55:00,
2013-02-25 03:00:00,48.7,48.2,29.97,SE,139,0.0,0.0,98,0.01,BKN,SKC,0.02,0.0,WeatherDisplay:10.37,2013-02-25 08:00:00,
2013-02-25 03:05:00,48.6,48.1,29.97,SE,139,0.0,0.0,98,0.01,BKN,SKC,0.02,0.0,WeatherDisplay:10.37,2013-02-25 08:05:00,
2013-02-25 03:10:00,48.4,47.9,29.97,SE,139,0.0,0.0,98,0.01,BKN,SKC,0.02,0.0,WeatherDisplay:10.37,2013-02-25 08:10:00,
2013-02-25 03:15:00,48.3,47.8,29.97,SE,139,0.0,0.0,98,0.01,BKN,SKC,0.02,0.0,WeatherDisplay:10.37,2013-02-25 08:15:00,
2013-02-25 03:20:00,48.2,47.7,29.97,SE,139,0.0,0.0,98,0.01,BKN,SKC,0.02,0.0,WeatherDisplay:10.37,2013-02-25 08:20:00,
2013-02-25 03:25:00,48.3,47.8,29.96,SE,139,0.0,0.0,98,0.01,BKN,SKC,0.02,0.0,WeatherDisplay:10.37,2013-02-25 08:25:00,
2013-02-25 03:30:00,48.2,47.7,29.96,SE,139,0.0,0.0,98,0.01,BKN,SKC,0.02,0.0,WeatherDisplay:10.37,2013-02-25 08:30:00,
2013-02-25 03:36:00,48.2,47.7,29.96,SE,139,0.0,0.0,98,0.01,BKN,SKC,0.02,0.0,WeatherDisplay:10.37,2013-02-25 08:36:00,
2013-02-25 03:41:00,48.2,47.7,29.96,SE,139,0.0,0.0,98,0.01,BKN,SKC,0.02,0.0,WeatherDisplay:10.37,2013-02-25 08:41:00,
2013-02-25 03:46:00,48.2,47.7,29.95,SE,139,0.0,0.0,98,0.00,BKN,SKC,0.02,0.0,WeatherDisplay:10.37,2013-02-25 08:46:00,
2013-02-25 03:51:00,48.2,47.7,29.95,SE,139,0.0,0.0,98,0.00,BKN,SKC,0.02,0.0,WeatherDisplay:10.37,2013-02-25 08:51:00,
2013-02-25 03:56:00,48.3,47.8,29.95,SE,139,0.0,0.0,98,0.00,BKN,SKC,0.02,0.0,WeatherDisplay:10.37,2013-02-25 08:56:00,
2013-02-25 04:01:00,48.3,47.8,29.96,SE,139,0.0,0.0,98,0.00,BKN,SKC,0.02,0.0,WeatherDisplay:10.37,2013-02-25 09:01:00,
2013-02-25 04:06:00,48.4,47.9,29.96,SE,139,0.0,0.0,98,0.00,BKN,SKC,0.02,0.0,WeatherDisplay:10.37,2013-02-25 09:06:00,
2013-02-25 04:11:00,48.5,48.0,29.96,SE,139,0.0,0.0,98,0.00,BKN,SKC,0.02,0.0,WeatherDisplay:10.37,2013-02-25 09:11:00,
2013-02-25 04:16:00,48.5,48.0,29.97,SE,139,0.0,0.0,98,0.00,BKN,SKC,0.02,0.0,WeatherDisplay:10.37,2013-02-25 09:16:00,
2013-02-25 04:21:00,48.6,48.1,29.97,SE,139,0.0,0.0,98,0.00,BKN,SKC,0.02,0.0,WeatherDisplay:10.37,2013-02-25 09:21:00,
2013-02-25 04:26:00,48.6,48.1,29.97,SE,139,0.0,0.0,98,0.00,BKN,SKC,0.02,0.0,WeatherDisplay:10.37,2013-02-25 09:26:00,
2013-02-25 04:31:00,48.6,48.1,29.97,SE,139,0.0,0.0,98,0.00,BKN,SKC,0.02,0.0,WeatherDisplay:10.37,2013-02-25 09:31:00,
2013-02-25 04:36:00,48.6,48.1,29.97,SE,139,0.0,0.0,98,0.00,BKN,SKC,0.02,0.0,WeatherDisplay:10.37,2013-02-25 09:36:00,
2013-02-25 04:41:00,48.6,48.1,29.97,SE,139,0.0,0.0,98,0.00,BKN,SKC,0.02,0.0,WeatherDisplay:10.37,2013-02-25 09:41:00,
2013-02-25 04:46:00,48.6,48.1,29.97,SE,139,0.0,0.0,98,0.00,BKN,SKC,0.02,0.0,WeatherDisplay:10.37,2013-02-25 09:46:00,
2013-02-25 04:51:00,48.6,48.1,29.97,SE,139,0.0,0.0,98,0.00,BKN,SKC,0.02,0.0,WeatherDisplay:10.37,2013-02-25 09:51:00,
2013-02-25 04:56:00,48.7,48.2,29.97,SE,139,0.0,0.0,98,0.00,BKN,SKC,0.02,0.0,WeatherDisplay:10.37,2013-02-25 09:56:00,
2013-02-25 05:01:00,48.7,48.2,29.97,SE,139,0.0,0.0,98,0.00,BKN,SKC,0.02,0.0,WeatherDisplay:10.37,2013-02-25 10:01:00,
2013-02-25 05:06:00,48.7,48.2,29.97,SE,139,0.0,0.0,98,0.00,BKN,SKC,0.02,0.0,WeatherDisplay:10.37,2013-02-25 10:06:00,
2013-02-25 05:11:00,48.8,48.3,29.97,SE,139,0.0,0.0,98,0.00,BKN,SKC,0.02,0.0,WeatherDisplay:10.37,2013-02-25 10:11:00,
2013-02-25 05:16:00,48.8,48.3,29.98,SE,139,0.0,0.0,98,0.00,BKN,SKC,0.02,0.0,WeatherDisplay:10.37,2013-02-25 10:16:00,
2013-02-25 05:21:00,48.9,48.4,29.98,SE,139,0.0,0.0,98,0.00,BKN,SKC,0.02,0.0,WeatherDisplay:10.37,2013-02-25 10:21:00,
2013-02-25 05:26:00,48.8,48.3,29.98,SE,139,0.0,0.0,98,0.00,BKN,SKC,0.02,0.0,WeatherDisplay:10.37,2013-02-25 10:26:00,
2013-02-25 05:31:00,48.7,48.2,29.98,SE,139,0.0,0.0,98,0.00,BKN,SKC,0.02,0.0,WeatherDisplay:10.37,2013-02-25 10:31:00,
2013-02-25 05:36:00,48.7,48.2,29.98,SE,139,0.0,0.0,98,0.00,BKN,SKC,0.02,0.0,WeatherDisplay:10.37,2013-02-25 10:36:00,
2013-02-25 05:41:00,48.9,48.4,29.98,SE,139,0.0,0.0,98,0.00,BKN,SKC,0.02,0.0,WeatherDisplay:10.37,2013-02-25 10:41:00,
2013-02-25 05:46:00,49.0,48.5,29.99,SE,139,0.0,0.0,98,0.00,BKN,SKC,0.02,0.0,WeatherDisplay:10.37,2013-02-25 10:46:00,
2013-02-25 05:51:00,49.1,48.6,29.99,SE,139,0.0,0.0,98,0.00,BKN,SKC,0.02,0.0,WeatherDisplay:10.37,2013-02-25 10:51:00,
2013-02-25 05:56:00,49.0,48.5,29.99,SE,139,0.0,0.0,98,0.00,BKN,SKC,0.02,0.0,WeatherDisplay:10.37,2013-02-25 10:56:00,
2013-02-25 06:01:00,49.0,48.5,29.99,SE,139,0.0,0.0,98,0.00,BKN,SKC,0.02,0.0,WeatherDisplay:10.37,2013-02-25 11:01:00,
2013-02-25 06:06:00,49.0,48.5,30.00,SE,139,0.0,0.1,98,0.00,BKN,SKC,0.02,0.0,WeatherDisplay:10.37,2013-02-25 11:06:00,
2013-02-25 06:11:00,49.0,48.5,30.00,SE,139,0.0,0.0,98,0.00,BKN,SKC,0.02,0.0,WeatherDisplay:10.37,2013-02-25 11:11:00,
2013-02-25 06:16:00,49.3,48.8,30.00,SE,139,0.0,0.0,98,0.00,BKN,SKC,0.02,0.0,WeatherDisplay:10.37,2013-02-25 11:16:00,
2013-02-25 06:21:00,49.4,48.9,30.01,SE,139,0.0,0.0,98,0.00,BKN,SKC,0.02,0.0,WeatherDisplay:10.37,2013-02-25 11:21:00,
2013-02-25 06:26:00,49.7,49.2,30.01,NE,34,2.3,2.3,98,0.00,BKN,SKC,0.02,0.0,WeatherDisplay:10.37,2013-02-25 11:26:00,
2013-02-25 06:31:00,49.7,49.2,30.01,NNE,32,2.3,2.3,98,0.00,BKN,SKC,0.02,0.0,WeatherDisplay:10.37,2013-02-25 11:31:00,
2013-02-25 06:36:00,49.6,49.1,30.02,East,101,2.3,2.3,98,0.00,BKN,SKC,0.02,0.0,WeatherDisplay:10.37,2013-02-25 11:36:00,
2013-02-25 06:41:00,49.6,49.1,30.02,East,96,0.0,0.0,98,0.00,BKN,SKC,0.02,0.0,WeatherDisplay:10.37,2013-02-25 11:41:00,
2013-02-25 06:46:00,49.5,49.0,30.03,East,96,0.0,0.0,98,0.00,BKN,SKC,0.02,0.0,WeatherDisplay:10.37,2013-02-25 11:46:00,
2013-02-25 06:51:00,49.4,48.9,30.03,ENE,60,2.3,2.3,98,0.00,BKN,SKC,0.02,0.0,WeatherDisplay:10.37,2013-02-25 11:51:00,
2013-02-25 06:56:00,49.2,48.7,30.04,East,92,2.3,2.3,98,0.00,BKN,SKC,0.02,0.0,WeatherDisplay:10.37,2013-02-25 11:56:00,
2013-02-25 07:01:00,49.0,48.5,30.05,ENE,70,3.5,3.5,98,0.00,OVC,SKC,0.02,0.0,WeatherDisplay:10.37,2013-02-25 12:01:00,
2013-02-25 07:06:00,48.8,48.3,30.04,East,80,3.5,3.5,98,0.00,OVC,SKC,0.02,5.0,WeatherDisplay:10.37,2013-02-25 12:06:00,
2013-02-25 07:11:00,48.6,48.1,30.04,East,83,2.3,2.3,98,0.00,OVC,SKC,0.02,9.0,WeatherDisplay:10.37,2013-02-25 12:11:00,
2013-02-25 07:16:00,48.3,47.8,30.04,East,84,5.8,5.8,98,0.00,OVC,SKC,0.02,12.0,WeatherDisplay:10.37,2013-02-25 12:16:00,
2013-02-25 07:21:00,48.3,47.5,30.04,East,85,3.0,3.0,97,0.00,OVC,SKC,0.02,14.0,WeatherDisplay:10.37,2013-02-25 12:21:00,
2013-02-25 07:26:00,48.1,47.3,30.04,ESE,111,5.0,5.0,97,0.00,OVC,SKC,0.02,16.0,WeatherDisplay:10.37,2013-02-25 12:26:00,
2013-02-25 07:31:00,47.9,47.1,30.04,East,98,3.5,3.5,97,0.00,OVC,SKC,0.02,18.0,WeatherDisplay:10.37,2013-02-25 12:31:00,
2013-02-25 07:36:00,48.0,47.2,30.04,East,98,4.6,4.6,97,0.00,OVC,SKC,0.02,21.0,WeatherDisplay:10.37,2013-02-25 12:36:00,
2013-02-25 07:41:00,48.1,47.0,30.03,East,98,4.6,4.6,96,0.00,OVC,SKC,0.02,25.0,WeatherDisplay:10.37,2013-02-25 12:41:00,
2013-02-25 07:46:00,48.3,46.9,30.04,East,99,2.3,2.3,95,0.00,OVC,SKC,0.02,28.0,WeatherDisplay:10.37,2013-02-25 12:46:00,
2013-02-25 07:52:00,48.5,46.9,30.03,East,86,3.5,3.5,94,0.00,OVC,SKC,0.02,32.0,WeatherDisplay:10.37,2013-02-25 12:52:00,
2013-02-25 07:57:00,48.7,46.8,30.03,ESE,105,5.0,5.0,93,0.00,OVC,SKC,0.02,32.0,WeatherDisplay:10.37,2013-02-25 12:57:00,
2013-02-25 08:02:00,49.0,46.5,30.03,ENE,78,7.0,7.0,91,0.00,OVC,SKC,0.02,32.0,WeatherDisplay:10.37,2013-02-25 13:02:00,
2013-02-25 08:07:00,49.2,46.1,30.04,East,88,5.8,5.8,89,0.00,OVC,SKC,0.02,35.0,WeatherDisplay:10.37,2013-02-25 13:07:00,
2013-02-25 08:13:00,49.4,45.7,30.03,NE,55,9.2,9.2,87,0.00,OVC,SKC,0.02,35.0,WeatherDisplay:10.37,2013-02-25 13:13:00,
2013-02-25 08:18:00,49.6,45.6,30.03,ESE,107,8.1,8.1,86,0.00,OVC,SKC,0.02,35.0,WeatherDisplay:10.37,2013-02-25 13:18:00,
2013-02-25 08:23:00,49.7,45.4,30.04,East,96,5.0,5.0,85,0.00,OVC,SKC,0.02,40.0,WeatherDisplay:10.37,2013-02-25 13:23:00,
2013-02-25 08:28:00,49.9,45.3,30.04,NE,48,8.1,8.1,84,0.00,OVC,SKC,0.02,47.0,WeatherDisplay:10.37,2013-02-25 13:28:00,
2013-02-25 08:33:00,50.0,45.4,30.04,East,99,5.0,5.0,84,0.00,OVC,SKC,0.02,56.0,WeatherDisplay:10.37,2013-02-25 13:33:00,
2013-02-25 08:38:00,50.1,45.1,30.04,ESE,119,4.6,4.6,83,0.00,OVC,SKC,0.02,60.0,WeatherDisplay:10.37,2013-02-25 13:38:00,
2013-02-25 08:43:00,50.3,45.3,30.05,East,91,8.1,8.1,83,0.00,OVC,SKC,0.02,60.0,WeatherDisplay:10.37,2013-02-25 13:43:00,
2013-02-25 08:48:00,50.4,45.4,30.05,East,98,5.0,5.0,83,0.00,OVC,SKC,0.02,62.0,WeatherDisplay:10.37,2013-02-25 13:48:00,
2013-02-25 08:53:00,50.5,45.5,30.06,NE,42,8.1,8.1,83,0.00,OVC,SKC,0.02,63.0,WeatherDisplay:10.37,2013-02-25 13:53:00,
2013-02-25 08:58:00,50.6,45.3,30.06,ESE,103,5.8,5.8,82,0.00,OVC,SKC,0.02,63.0,WeatherDisplay:10.37,2013-02-25 13:58:00,
2013-02-25 09:03:00,50.6,45.3,30.06,NNE,28,4.6,4.6,82,0.00,OVC,SKC,0.02,63.0,WeatherDisplay:10.37,2013-02-25 14:03:00,
2013-02-25 09:08:00,50.5,45.2,30.06,ESE,105,6.0,6.0,82,0.00,OVC,SKC,0.02,67.0,WeatherDisplay:10.37,2013-02-25 14:08:00,
2013-02-25 09:13:00,50.6,45.6,30.07,East,90,4.6,4.6,83,0.00,OVC,SKC,0.02,67.0,WeatherDisplay:10.37,2013-02-25 14:13:00,
2013-02-25 09:19:00,50.5,45.5,30.07,ENE,74,8.1,8.1,83,0.00,OVC,SKC,0.02,63.0,WeatherDisplay:10.37,2013-02-25 14:19:00,
2013-02-25 09:24:00,50.5,45.5,30.07,ESE,107,8.1,8.1,83,0.00,OVC,SKC,0.02,62.0,WeatherDisplay:10.37,2013-02-25 14:24:00,
2013-02-25 09:29:00,50.5,45.5,30.07,ESE,103,4.6,4.6,83,0.00,OVC,SKC,0.02,58.0,WeatherDisplay:10.37,2013-02-25 14:29:00,
2013-02-25 09:34:00,50.6,45.9,30.07,ENE,63,5.8,5.8,84,0.00,OVC,SKC,0.02,49.0,WeatherDisplay:10.37,2013-02-25 14:34:00,
2013-02-25 09:39:00,50.5,45.8,30.07,ENE,59,11.5,11.5,84,0.00,OVC,SKC,0.02,47.0,WeatherDisplay:10.37,2013-02-25 14:39:00,
2013-02-25 09:44:00,50.5,46.2,30.06,ESE,103,9.2,9.2,85,0.00,OVC,SKC,0.02,53.0,WeatherDisplay:10.37,2013-02-25 14:44:00,
2013-02-25 09:49:00,50.5,46.2,30.07,East,89,9.2,9.2,85,0.00,OVC,SKC,0.02,56.0,WeatherDisplay:10.37,2013-02-25 14:49:00,
2013-02-25 09:54:00,50.5,46.2,30.07,ENE,78,8.1,8.1,85,0.00,OVC,SKC,0.02,54.0,WeatherDisplay:10.37,2013-02-25 14:54:00,
2013-02-25 09:59:00,50.6,46.3,30.07,ESE,115,5.8,5.8,85,0.00,OVC,SKC,0.02,54.0,WeatherDisplay:10.37,2013-02-25 14:59:00,
2013-02-25 10:04:00,50.6,46.6,30.07,SE,124,4.6,4.6,86,0.00,OVC,SKC,0.02,49.0,WeatherDisplay:10.37,2013-02-25 15:04:00,
2013-02-25 10:09:00,50.6,46.6,30.07,ESE,107,10.0,10.0,86,0.00,OVC,SKC,0.02,49.0,WeatherDisplay:10.37,2013-02-25 15:09:00,
2013-02-25 10:14:00,50.6,46.6,30.07,East,86,5.0,5.0,86,0.00,OVC,SKC,0.02,51.0,WeatherDisplay:10.37,2013-02-25 15:14:00,
2013-02-25 10:19:00,50.6,46.9,30.06,East,92,4.6,4.6,87,0.00,OVC,SKC,0.02,56.0,WeatherDisplay:10.37,2013-02-25 15:19:00,
2013-02-25 10:24:00,50.7,47.0,30.07,ENE,69,5.0,5.0,87,0.00,OVC,SKC,0.02,58.0,WeatherDisplay:10.37,2013-02-25 15:24:00,
2013-02-25 10:29:00,50.8,47.1,30.07,East,94,4.6,4.6,87,0.00,OVC,SKC,0.02,56.0,WeatherDisplay:10.37,2013-02-25 15:29:00,
2013-02-25 10:34:00,50.8,47.4,30.07,ESE,108,9.2,9.2,88,0.00,OVC,SKC,0.02,53.0,WeatherDisplay:10.37,2013-02-25 15:34:00,
2013-02-25 10:39:00,50.8,47.4,30.07,ENE,63,11.5,11.5,88,0.00,OVC,SKC,0.02,56.0,WeatherDisplay:10.37,2013-02-25 15:39:00,
2013-02-25 10:44:00,50.8,47.4,30.07,East,98,7.0,7.0,88,0.00,OVC,SKC,0.02,54.0,WeatherDisplay:10.37,2013-02-25 15:44:00,
2013-02-25 10:49:00,50.8,47.4,30.07,ESE,113,8.1,8.1,88,0.00,OVC,SKC,0.02,62.0,WeatherDisplay:10.37,2013-02-25 15:49:00,
2013-02-25 10:54:00,50.8,47.4,30.07,East,96,6.9,6.9,88,0.00,OVC,SKC,0.02,86.0,WeatherDisplay:10.37,2013-02-25 15:54:00,
2013-02-25 10:59:00,50.9,47.5,30.07,ESE,107,8.0,8.0,88,0.00,OVC,SKC,0.02,93.0,WeatherDisplay:10.37,2013-02-25 15:59:00,
2013-02-25 11:04:00,50.9,47.5,30.08,ESE,121,8.1,8.1,88,0.01,RA,SKC,0.03,111.0,WeatherDisplay:10.37,2013-02-25 16:04:00,
2013-02-25 11:09:00,51.1,47.7,30.08,ENE,57,8.1,8.1,88,0.01,RA,SKC,0.03,102.0,WeatherDisplay:10.37,2013-02-25 16:09:00,
2013-02-25 11:14:00,51.2,47.8,30.07,East,95,8.1,8.1,88,0.01,OVC,SKC,0.03,114.0,WeatherDisplay:10.37,2013-02-25 16:14:00,
2013-02-25 11:19:00,51.3,47.9,30.08,East,98,5.8,5.8,88,0.01,OVC,SKC,0.03,111.0,WeatherDisplay:10.37,2013-02-25 16:19:00,
2013-02-25 11:24:00,51.2,47.8,30.08,ENE,76,6.9,6.9,88,0.01,OVC,SKC,0.03,95.0,WeatherDisplay:10.37,2013-02-25 16:24:00,
2013-02-25 11:29:00,51.1,47.7,30.08,East,87,6.9,6.9,88,0.01,OVC,SKC,0.03,83.0,WeatherDisplay:10.37,2013-02-25 16:29:00,
2013-02-25 11:34:00,51.1,47.7,30.08,East,98,8.1,8.1,88,0.01,OVC,SKC,0.03,93.0,WeatherDisplay:10.37,2013-02-25 16:34:00,
2013-02-25 11:39:00,51.0,47.6,30.08,NNE,15,6.9,6.9,88,0.01,OVC,SKC,0.03,83.0,WeatherDisplay:10.37,2013-02-25 16:39:00,
2013-02-25 11:44:00,50.9,47.5,30.09,East,98,8.1,8.1,88,0.01,OVC,SKC,0.03,70.0,WeatherDisplay:10.37,2013-02-25 16:44:00,
2013-02-25 11:49:00,50.9,47.5,30.09,East,89,5.8,5.8,88,0.01,OVC,SKC,0.03,56.0,WeatherDisplay:10.37,2013-02-25 16:49:00,
2013-02-25 11:54:00,50.9,47.5,30.09,NE,51,3.5,3.5,88,0.01,OVC,SKC,0.03,54.0,WeatherDisplay:10.37,2013-02-25 16:54:00,
2013-02-25 11:59:00,51.0,47.6,30.09,ESE,123,3.5,3.5,88,0.01,OVC,SKC,0.03,58.0,WeatherDisplay:10.37,2013-02-25 16:59:00,
2013-02-25 12:04:00,50.9,47.5,30.09,East,82,6.9,6.9,88,0.00,OVC,SKC,0.03,69.0,WeatherDisplay:10.37,2013-02-25 17:04:00,
2013-02-25 12:09:00,50.9,47.5,30.09,East,88,4.6,4.6,88,0.00,OVC,SKC,0.03,53.0,WeatherDisplay:10.37,2013-02-25 17:09:00,
2013-02-25 12:14:00,50.8,47.4,30.08,ENE,71,4.6,4.6,88,0.00,OVC,SKC,0.03,83.0,WeatherDisplay:10.37,2013-02-25 17:14:00,
2013-02-25 12:19:00,50.7,47.3,30.08,East,96,6.9,6.9,88,0.00,OVC,SKC,0.03,93.0,WeatherDisplay:10.37,2013-02-25 17:19:00,
2013-02-25 12:24:00,50.8,47.7,30.08,East,86,5.0,5.0,89,0.00,OVC,SKC,0.03,97.0,WeatherDisplay:10.37,2013-02-25 17:24:00,
2013-02-25 12:29:00,50.7,47.3,30.07,ENE,67,3.5,3.5,88,0.00,OVC,SKC,0.03,95.0,WeatherDisplay:10.37,2013-02-25 17:29:00,
2013-02-25 12:34:00,50.5,47.1,30.06,ESE,109,9.2,9.2,88,0.00,OVC,SKC,0.03,120.0,WeatherDisplay:10.37,2013-02-25 17:34:00,
2013-02-25 12:39:00,50.5,47.4,30.06,ENE,59,4.6,4.6,89,0.00,OVC,SKC,0.03,137.0,WeatherDisplay:10.37,2013-02-25 17:39:00,
2013-02-25 12:44:00,50.4,47.3,30.06,ENE,68,4.6,4.6,89,0.00,OVC,SKC,0.03,125.0,WeatherDisplay:10.37,2013-02-25 17:44:00,
2013-02-25 12:49:00,50.3,47.5,30.06,ESE,105,5.0,5.0,90,0.00,OVC,SKC,0.03,137.0,WeatherDisplay:10.37,2013-02-25 17:49:00,
2013-02-25 12:54:00,50.3,47.5,30.06,ENE,62,12.7,12.7,90,0.00,OVC,SKC,0.03,120.0,WeatherDisplay:10.37,2013-02-25 17:54:00,
2013-02-25 12:59:00,49.9,46.8,30.06,ENE,62,9.2,9.2,89,0.00,OVC,SKC,0.03,114.0,WeatherDisplay:10.37,2013-02-25 17:59:00,
2013-02-25 13:04:00,49.7,46.6,30.06,East,97,6.9,6.9,89,0.00,OVC,SKC,0.03,105.0,WeatherDisplay:10.37,2013-02-25 18:04:00,
2013-02-25 13:09:00,49.7,46.9,30.05,ESE,109,9.2,9.2,90,0.00,OVC,SKC,0.03,97.0,WeatherDisplay:10.37,2013-02-25 18:09:00,
2013-02-25 13:14:00,49.6,46.8,30.05,East,92,8.1,8.1,90,0.00,OVC,SKC,0.03,86.0,WeatherDisplay:10.37,2013-02-25 18:14:00,
2013-02-25 13:19:00,49.5,46.7,30.05,ESE,107,5.8,5.8,90,0.00,OVC,SKC,0.03,83.0,WeatherDisplay:10.37,2013-02-25 18:19:00,
2013-02-25 13:24:00,49.4,46.6,30.05,ENE,73,5.8,5.8,90,0.00,OVC,SKC,0.03,84.0,WeatherDisplay:10.37,2013-02-25 18:24:00,
2013-02-25 13:29:00,49.2,46.1,30.05,ENE,73,11.5,11.5,89,0.00,OVC,SKC,0.03,88.0,WeatherDisplay:10.37,2013-02-25 18:29:00,
2013-02-25 13:34:00,49.0,46.2,30.05,East,90,7.0,7.0,90,0.00,OVC,SKC,0.03,97.0,WeatherDisplay:10.37,2013-02-25 18:34:00,
2013-02-25 13:39:00,49.0,46.2,30.06,NE,53,5.8,5.8,90,0.00,OVC,SKC,0.03,86.0,WeatherDisplay:10.37,2013-02-25 18:39:00,
2013-02-25 13:44:00,49.0,46.2,30.06,East,94,4.6,4.6,90,0.00,OVC,SKC,0.03,88.0,WeatherDisplay:10.37,2013-02-25 18:44:00,
2013-02-25 13:49:00,48.9,46.1,30.06,East,94,4.6,4.6,90,0.00,OVC,SKC,0.03,86.0,WeatherDisplay:10.37,2013-02-25 18:49:00,
2013-02-25 13:54:00,49.0,46.5,30.07,ESE,114,3.0,3.0,91,0.00,OVC,SKC,0.03,69.0,WeatherDisplay:10.37,2013-02-25 18:54:00,
2013-02-25 13:59:00,48.9,46.7,30.07,ENE,65,2.3,2.3,92,0.00,OVC,SKC,0.03,72.0,WeatherDisplay:10.37,2013-02-25 18:59:00,
2013-02-25 14:04:00,48.8,46.6,30.06,ESE,114,5.8,5.8,92,0.00,-RA,SKC,0.03,69.0,WeatherDisplay:10.37,2013-02-25 19:04:00,
2013-02-25 14:09:00,48.5,46.3,30.06,East,96,5.0,5.0,92,0.00,-RA,SKC,0.03,63.0,WeatherDisplay:10.37,2013-02-25 19:09:00,
2013-02-25 14:14:00,48.2,46.0,30.06,NE,40,6.0,6.0,92,0.00,-RA,SKC,0.03,60.0,WeatherDisplay:10.37,2013-02-25 19:14:00,
2013-02-25 14:19:00,48.0,45.8,30.07,East,92,4.6,4.6,92,0.00,-RA,SKC,0.03,56.0,WeatherDisplay:10.37,2013-02-25 19:19:00,
2013-02-25 14:24:00,47.9,46.0,30.06,East,96,4.6,4.6,93,0.00,-RA,SKC,0.03,60.0,WeatherDisplay:10.37,2013-02-25 19:24:00,
2013-02-25 14:30:00,47.8,45.9,30.06,East,86,2.0,6.0,93,0.00,-RA,SKC,0.03,58.0,WeatherDisplay:10.37,2013-02-25 19:30:00,
2013-02-25 14:35:00,47.6,45.7,30.06,East,86,3.5,3.5,93,0.00,-RA,SKC,0.03,58.0,WeatherDisplay:10.37,2013-02-25 19:35:00,
2013-02-25 14:40:00,47.4,45.5,30.06,ENE,76,5.8,5.8,93,0.00,-RA,SKC,0.03,56.0,WeatherDisplay:10.37,2013-02-25 19:40:00,
2013-02-25 14:45:00,47.3,45.4,30.06,ENE,77,5.8,5.8,93,0.00,-RA,SKC,0.03,56.0,WeatherDisplay:10.37,2013-02-25 19:45:00,
2013-02-25 14:50:00,47.2,45.3,30.05,East,90,7.0,7.0,93,0.00,-RA,SKC,0.03,62.0,WeatherDisplay:10.37,2013-02-25 19:50:00,
2013-02-25 14:55:00,47.1,45.2,30.05,ESE,107,5.0,5.0,93,0.00,-RA,SKC,0.03,65.0,WeatherDisplay:10.37,2013-02-25 19:55:00,
2013-02-25 15:00:00,47.1,45.5,30.05,East,101,5.8,5.8,94,0.00,-RA,SKC,0.03,62.0,WeatherDisplay:10.37,2013-02-25 20:00:00,
2013-02-25 15:05:00,47.0,45.4,30.04,East,96,8.1,8.1,94,0.00,-RA,SKC,0.03,63.0,WeatherDisplay:10.37,2013-02-25 20:05:00,
2013-02-25 15:10:00,46.9,45.3,30.04,East,92,3.5,4.0,94,0.00,-RA,SKC,0.03,72.0,WeatherDisplay:10.37,2013-02-25 20:10:00,
2013-02-25 15:15:00,46.9,45.3,30.03,ENE,71,8.1,8.1,94,0.00,-RA,SKC,0.03,74.0,WeatherDisplay:10.37,2013-02-25 20:15:00,
2013-02-25 15:20:00,46.9,45.3,30.03,South,169,4.6,4.6,94,0.00,-RA,SKC,0.03,72.0,WeatherDisplay:10.37,2013-02-25 20:20:00,
2013-02-25 15:25:00,46.6,45.0,30.03,North,355,6.9,6.9,94,0.00,-RA,SKC,0.03,69.0,WeatherDisplay:10.37,2013-02-25 20:25:00,
2013-02-25 15:30:00,46.4,44.8,30.02,ENE,76,8.1,8.1,94,0.00,-RA,SKC,0.03,62.0,WeatherDisplay:10.37,2013-02-25 20:30:00,
2013-02-25 15:35:00,46.3,44.7,30.02,ENE,77,9.2,9.2,94,0.01,-RA,SKC,0.04,70.0,WeatherDisplay:10.37,2013-02-25 20:35:00,
2013-02-25 15:40:00,46.4,44.8,30.03,ESE,108,5.0,5.0,94,0.01,-RA,SKC,0.04,65.0,WeatherDisplay:10.37,2013-02-25 20:40:00,
2013-02-25 15:45:00,46.4,45.0,30.03,East,99,6.9,6.9,95,0.01,-RA,SKC,0.04,54.0,WeatherDisplay:10.37,2013-02-25 20:45:00,
2013-02-25 15:50:00,46.2,44.8,30.03,East,98,5.0,5.0,95,0.01,-RA,SKC,0.04,53.0,WeatherDisplay:10.37,2013-02-25 20:50:00,
2013-02-25 15:55:00,46.0,44.4,30.03,ESE,111,6.9,6.9,94,0.01,-RA,SKC,0.04,51.0,WeatherDisplay:10.37,2013-02-25 20:55:00,
2013-02-25 16:00:00,45.9,44.3,30.03,East,88,6.9,6.9,94,0.01,-RA,SKC,0.04,56.0,WeatherDisplay:10.37,2013-02-25 21:00:00,
2013-02-25 16:05:00,45.8,44.2,30.03,ESE,115,9.2,9.2,94,0.01,-RA,SKC,0.04,54.0,WeatherDisplay:10.37,2013-02-25 21:05:00,
2013-02-25 16:10:00,45.6,44.0,30.03,ESE,111,6.9,6.9,94,0.01,-RA,SKC,0.04,51.0,WeatherDisplay:10.37,2013-02-25 21:10:00,
2013-02-25 16:15:00,45.6,44.0,30.03,NE,55,10.4,10.4,94,0.01,-RA,SKC,0.04,46.0,WeatherDisplay:10.37,2013-02-25 21:15:00,
2013-02-25 16:20:00,45.5,43.9,30.03,East,80,6.0,6.0,94,0.01,-RA,SKC,0.04,44.0,WeatherDisplay:10.37,2013-02-25 21:20:00,
2013-02-25 16:25:00,45.4,43.8,30.04,East,84,9.2,9.2,94,0.02,-RA,SKC,0.05,35.0,WeatherDisplay:10.37,2013-02-25 21:25:00,
2013-02-25 16:30:00,45.3,43.7,30.04,East,90,8.1,8.1,94,0.02,-RA,SKC,0.05,33.0,WeatherDisplay:10.37,2013-02-25 21:30:00,
2013-02-25 16:35:00,45.3,43.7,30.05,SE,138,5.0,5.0,94,0.01,-RA,SKC,0.05,32.0,WeatherDisplay:10.37,2013-02-25 21:35:00,
2013-02-25 16:40:00,45.3,43.7,30.04,East,80,9.2,9.2,94,0.01,-RA,SKC,0.05,26.0,WeatherDisplay:10.37,2013-02-25 21:40:00,
2013-02-25 16:45:00,45.4,43.8,30.04,ENE,76,5.8,5.8,94,0.01,-RA,SKC,0.05,23.0,WeatherDisplay:10.37,2013-02-25 21:45:00,
2013-02-25 16:50:00,45.4,43.8,30.04,SSE,148,9.2,9.2,94,0.01,-RA,SKC,0.05,18.0,WeatherDisplay:10.37,2013-02-25 21:50:00,
2013-02-25 16:55:00,45.5,43.9,30.05,NE,47,2.3,2.3,94,0.01,-RA,SKC,0.05,14.0,WeatherDisplay:10.37,2013-02-25 21:55:00,
2013-02-25 17:00:00,45.5,44.2,30.04,East,99,4.6,4.6,95,0.01,-RA,SKC,0.05,18.0,WeatherDisplay:10.37,2013-02-25 22:00:00,
2013-02-25 17:05:00,45.4,43.8,30.04,ESE,106,3.5,3.5,94,0.01,-RA,SKC,0.05,14.0,WeatherDisplay:10.37,2013-02-25 22:05:00,
2013-02-25 17:10:00,45.3,44.0,30.04,ENE,59,8.1,8.1,95,0.01,-RA,SKC,0.05,16.0,WeatherDisplay:10.37,2013-02-25 22:10:00,
2013-02-25 17:15:00,45.2,43.9,30.04,East,94,3.5,3.5,95,0.01,-RA,SKC,0.05,16.0,WeatherDisplay:10.37,2013-02-25 22:15:00,
2013-02-25 17:20:00,45.2,43.9,30.04,ESE,103,3.5,3.5,95,0.01,-RA,SKC,0.05,14.0,WeatherDisplay:10.37,2013-02-25 22:20:00,
2013-02-25 17:25:00,45.3,44.0,30.03,East,88,3.5,3.5,95,0.01,-RA,SKC,0.06,12.0,WeatherDisplay:10.37,2013-02-25 22:25:00,
2013-02-25 17:30:00,45.3,44.0,30.03,East,96,8.1,8.1,95,0.01,-RA,SKC,0.06,12.0,WeatherDisplay:10.37,2013-02-25 22:30:00,
2013-02-25 17:35:00,45.4,44.1,30.02,ESE,107,8.0,8.0,95,0.01,-RA,SKC,0.06,9.0,WeatherDisplay:10.37,2013-02-25 22:35:00,
2013-02-25 17:40:00,45.4,44.1,30.02,East,87,12.7,12.7,95,0.01,-RA,SKC,0.06,7.0,WeatherDisplay:10.37,2013-02-25 22:40:00,
2013-02-25 17:45:00,45.4,44.1,30.02,East,86,11.5,11.5,95,0.01,-RA,SKC,0.06,5.0,WeatherDisplay:10.37,2013-02-25 22:45:00,
2013-02-25 17:50:00,45.5,44.2,30.01,ESE,121,6.9,6.9,95,0.01,-RA,SKC,0.06,0.0,WeatherDisplay:10.37,2013-02-25 22:50:00,
2013-02-25 17:55:00,45.6,44.3,30.01,SE,140,5.8,5.8,95,0.01,-RA,SKC,0.06,0.0,WeatherDisplay:10.37,2013-02-25 22:55:00,
2013-02-25 18:00:00,45.8,44.4,29.99,ESE,102,9.2,9.2,95,0.01,-RA,SKC,0.06,0.0,WeatherDisplay:10.37,2013-02-25 23:00:00,
2013-02-25 18:05:00,45.9,44.5,30.01,ENE,66,12.7,12.7,95,0.01,-RA,SKC,0.06,0.0,WeatherDisplay:10.37,2013-02-25 23:05:00,
2013-02-25 18:10:00,46.1,45.0,30.00,East,98,11.5,11.5,96,0.01,-RA,SKC,0.06,0.0,WeatherDisplay:10.37,2013-02-25 23:10:00,
2013-02-25 18:15:00,46.3,45.2,29.99,East,98,5.8,5.8,96,0.02,-RA,SKC,0.07,0.0,WeatherDisplay:10.37,2013-02-25 23:15:00,
2013-02-25 18:20:00,46.5,45.4,29.98,East,95,13.0,13.0,96,0.02,-RA,SKC,0.07,0.0,WeatherDisplay:10.37,2013-02-25 23:20:00,
2013-02-25 18:25:00,46.7,45.6,29.99,East,95,6.9,6.9,96,0.01,-RA,SKC,0.07,0.0,WeatherDisplay:10.37,2013-02-25 23:25:00,
2013-02-25 18:30:00,47.0,45.9,29.99,East,87,9.2,9.2,96,0.01,-RA,SKC,0.07,0.0,WeatherDisplay:10.37,2013-02-25 23:30:00,
2013-02-25 18:35:00,47.2,46.1,29.99,NNE,30,9.2,9.2,96,0.01,-RA,SKC,0.07,0.0,WeatherDisplay:10.37,2013-02-25 23:35:00,
2013-02-25 18:40:00,47.6,46.5,30.00,East,100,4.6,4.6,96,0.01,-RA,SKC,0.07,0.0,WeatherDisplay:10.37,2013-02-25 23:40:00,
2013-02-25 18:45:00,47.8,46.7,30.00,East,85,5.8,5.8,96,0.01,-RA,SKC,0.07,0.0,WeatherDisplay:10.37,2013-02-25 23:45:00,
2013-02-25 18:50:00,48.1,47.0,30.01,NW,319,2.3,2.3,96,0.01,-RA,SKC,0.07,0.0,WeatherDisplay:10.37,2013-02-25 23:50:00,
2013-02-25 18:55:00,48.2,47.1,30.02,WNW,286,4.6,4.6,96,0.01,-RA,SKC,0.07,0.0,WeatherDisplay:10.37,2013-02-25 23:55:00,
2013-02-25 19:00:00,48.1,47.0,30.02,ENE,65,3.5,3.5,96,0.01,-RA,SKC,0.07,0.0,WeatherDisplay:10.37,2013-02-26 00:00:00,
2013-02-25 19:05:00,47.7,46.6,30.02,NNW,336,4.6,4.6,96,0.01,OVC,SKC,0.07,0.0,WeatherDisplay:10.37,2013-02-26 00:05:00,
2013-02-25 19:11:00,47.2,46.1,30.02,North,9,4.6,4.6,96,0.02,RA,SKC,0.08,0.0,WeatherDisplay:10.37,2013-02-26 00:11:00,
2013-02-25 19:16:00,46.9,45.8,30.02,SSE,157,5.8,5.8,96,0.01,RA,SKC,0.08,0.0,WeatherDisplay:10.37,2013-02-26 00:16:00,
2013-02-25 19:21:00,46.5,45.4,30.02,East,100,9.2,9.2,96,0.01,OVC,SKC,0.08,0.0,WeatherDisplay:10.37,2013-02-26 00:21:00,
2013-02-25 19:26:00,46.3,45.2,30.02,NW,315,6.9,6.9,96,0.01,OVC,SKC,0.08,0.0,WeatherDisplay:10.37,2013-02-26 00:26:00,
2013-02-25 19:31:00,46.1,45.0,30.02,South,180,10.4,10.4,96,0.01,OVC,SKC,0.08,0.0,WeatherDisplay:10.37,2013-02-26 00:31:00,
2013-02-25 19:36:00,45.9,44.8,30.02,NE,55,5.8,5.8,96,0.01,OVC,SKC,0.08,0.0,WeatherDisplay:10.37,2013-02-26 00:36:00,
2013-02-25 19:41:00,45.7,44.6,30.02,ESE,103,5.8,5.8,96,0.01,OVC,SKC,0.08,0.0,WeatherDisplay:10.37,2013-02-26 00:41:00,
2013-02-25 19:46:00,45.5,44.4,30.02,ESE,111,8.1,8.1,96,0.01,OVC,SKC,0.08,0.0,WeatherDisplay:10.37,2013-02-26 00:46:00,
2013-02-25 19:51:00,45.3,44.2,30.01,NE,47,8.1,8.1,96,0.01,OVC,SKC,0.08,0.0,WeatherDisplay:10.37,2013-02-26 00:51:00,
2013-02-25 19:56:00,45.2,44.1,30.00,SE,134,8.1,8.1,96,0.02,RA,SKC,0.09,0.0,WeatherDisplay:10.37,2013-02-26 00:56:00,
2013-02-25 20:01:00,45.0,43.9,29.99,ENE,73,8.1,8.1,96,0.02,RA,SKC,0.09,0.0,WeatherDisplay:10.37,2013-02-26 01:01:00,
2013-02-25 20:06:00,44.9,43.8,29.99,ENE,65,8.1,8.1,96,0.02,OVC,SKC,0.09,0.0,WeatherDisplay:10.37,2013-02-26 01:06:00,
2013-02-25 20:11:00,44.7,43.6,29.97,East,101,9.2,9.2,96,0.01,OVC,SKC,0.09,0.0,WeatherDisplay:10.37,2013-02-26 01:11:00,
2013-02-25 20:16:00,44.6,43.5,29.95,ENE,77,12.7,12.7,96,0.01,OVC,SKC,0.09,0.0,WeatherDisplay:10.37,2013-02-26 01:16:00,
2013-02-25 20:21:00,44.5,43.4,29.97,NW,313,9.2,9.2,96,0.01,OVC,SKC,0.09,0.0,WeatherDisplay:10.37,2013-02-26 01:21:00,
2013-02-25 20:26:00,44.5,43.4,30.01,NW,311,10.4,10.4,96,0.01,OVC,SKC,0.09,0.0,WeatherDisplay:10.37,2013-02-26 01:26:00,
2013-02-25 20:31:00,44.4,43.3,30.02,West,273,9.2,9.2,96,0.01,OVC,SKC,0.09,0.0,WeatherDisplay:10.37,2013-02-26 01:31:00,
2013-02-25 20:36:00,44.1,43.0,30.00,North,11,5.8,5.8,96,0.01,OVC,SKC,0.09,0.0,WeatherDisplay:10.37,2013-02-26 01:36:00,
2013-02-25 20:41:00,43.9,42.6,29.96,East,94,10.0,10.0,95,0.01,OVC,SKC,0.09,0.0,WeatherDisplay:10.37,2013-02-26 01:41:00,
2013-02-25 20:46:00,43.6,42.3,29.98,NNE,14,10.4,10.4,95,0.01,OVC,SKC,0.09,0.0,WeatherDisplay:10.37,2013-02-26 01:46:00,
2013-02-25 20:51:00,43.5,42.2,30.02,WNW,290,8.1,8.1,95,0.02,RA,SKC,0.10,0.0,WeatherDisplay:10.37,2013-02-26 01:51:00,
2013-02-25 20:56:00,43.3,42.0,30.01,NW,311,9.2,9.2,95,0.01,RA,SKC,0.10,0.0,WeatherDisplay:10.37,2013-02-26 01:56:00,
2013-02-25 21:01:00,43.1,41.8,30.02,NNW,346,4.0,4.0,95,0.01,OVC,SKC,0.10,0.0,WeatherDisplay:10.37,2013-02-26 02:01:00,
2013-02-25 21:06:00,43.1,41.8,30.02,ESE,111,8.0,8.0,95,0.01,OVC,SKC,0.10,0.0,WeatherDisplay:10.37,2013-02-26 02:06:00,
2013-02-25 21:11:00,42.9,41.3,30.02,North,350,5.8,5.8,94,0.01,OVC,SKC,0.10,0.0,WeatherDisplay:10.37,2013-02-26 02:11:00,
2013-02-25 21:16:00,42.9,41.3,30.02,NNW,329,8.1,8.1,94,0.01,OVC,SKC,0.10,0.0,WeatherDisplay:10.37,2013-02-26 02:16:00,
2013-02-25 21:21:00,42.8,41.2,30.03,NNW,339,2.3,2.3,94,0.01,OVC,SKC,0.10,0.0,WeatherDisplay:10.37,2013-02-26 02:21:00,
2013-02-25 21:26:00,42.8,41.2,30.03,NNE,27,11.0,11.0,94,0.01,OVC,SKC,0.10,0.0,WeatherDisplay:10.37,2013-02-26 02:26:00,
2013-02-25 21:31:00,42.8,40.9,30.03,ENE,59,5.8,5.8,93,0.01,OVC,SKC,0.10,0.0,WeatherDisplay:10.37,2013-02-26 02:31:00,
2013-02-25 21:36:00,42.8,40.9,30.02,East,81,10.4,10.4,93,0.01,OVC,SKC,0.10,0.0,WeatherDisplay:10.37,2013-02-26 02:36:00,
2013-02-25 21:41:00,42.8,40.9,30.02,West,271,6.9,6.9,93,0.02,RA,SKC,0.11,0.0,WeatherDisplay:10.37,2013-02-26 02:41:00,
2013-02-25 21:46:00,42.8,40.9,30.01,ENE,67,11.5,11.5,93,0.02,RA,SKC,0.11,0.0,WeatherDisplay:10.37,2013-02-26 02:46:00,
2013-02-25 21:51:00,42.9,41.0,30.01,NE,49,6.9,6.9,93,0.01,OVC,SKC,0.11,0.0,WeatherDisplay:10.37,2013-02-26 02:51:00,
2013-02-25 21:56:00,43.0,40.8,30.01,ENE,69,8.1,8.1,92,0.01,OVC,SKC,0.11,0.0,WeatherDisplay:10.37,2013-02-26 02:56:00,
2013-02-25 22:01:00,43.1,40.9,30.01,East,85,8.1,8.1,92,0.01,OVC,SKC,0.11,0.0,WeatherDisplay:10.37,2013-02-26 03:01:00,
2013-02-25 22:06:00,43.2,41.0,30.01,East,99,9.2,9.2,92,0.01,OVC,SKC,0.11,0.0,WeatherDisplay:10.37,2013-02-26 03:06:00,
2013-02-25 22:11:00,43.3,41.1,30.01,East,85,10.4,10.4,92,0.01,OVC,SKC,0.11,0.0,WeatherDisplay:10.37,2013-02-26 03:11:00,
2013-02-25 22:16:00,43.3,40.8,30.00,SE,133,10.0,10.0,91,0.01,OVC,SKC,0.11,0.0,WeatherDisplay:10.37,2013-02-26 03:16:00,
2013-02-25 22:21:00,43.4,40.9,30.00,ESE,108,8.1,8.1,91,0.01,OVC,SKC,0.11,0.0,WeatherDisplay:10.37,2013-02-26 03:21:00,
2013-02-25 22:26:00,43.6,41.1,30.01,ESE,114,9.2,9.2,91,0.01,OVC,SKC,0.11,0.0,WeatherDisplay:10.37,2013-02-26 03:26:00,
2013-02-25 22:31:00,43.8,41.6,30.01,East,95,8.1,8.1,92,0.01,OVC,SKC,0.11,0.0,WeatherDisplay:10.37,2013-02-26 03:31:00,
2013-02-25 22:36:00,44.0,41.8,30.01,East,101,10.4,10.4,92,0.01,OVC,SKC,0.12,0.0,WeatherDisplay:10.37,2013-02-26 03:36:00,
2013-02-25 22:41:00,44.3,42.1,30.00,ENE,78,8.1,8.1,92,0.01,RA,SKC,0.12,0.0,WeatherDisplay:10.37,2013-02-26 03:41:00,
2013-02-25 22:46:00,44.7,42.8,29.99,ESE,108,11.5,11.5,93,0.01,RA,SKC,0.12,0.0,WeatherDisplay:10.37,2013-02-26 03:46:00,
2013-02-25 22:51:00,45.0,43.1,29.98,East,92,9.0,9.0,93,0.01,OVC,SKC,0.12,0.0,WeatherDisplay:10.37,2013-02-26 03:51:00,
2013-02-25 22:56:00,45.4,43.5,29.97,East,99,10.4,10.4,93,0.01,OVC,SKC,0.12,0.0,WeatherDisplay:10.37,2013-02-26 03:56:00,
2013-02-25 23:01:00,45.7,43.8,29.98,East,79,6.9,6.9,93,0.01,OVC,SKC,0.12,0.0,WeatherDisplay:10.37,2013-02-26 04:01:00,
2013-02-25 23:06:00,46.1,44.2,29.97,East,94,9.2,9.2,93,0.01,OVC,SKC,0.12,0.0,WeatherDisplay:10.37,2013-02-26 04:06:00,
2013-02-25 23:11:00,46.5,44.6,29.96,ENE,76,9.0,9.0,93,0.01,OVC,SKC,0.12,0.0,WeatherDisplay:10.37,2013-02-26 04:11:00,
2013-02-25 23:16:00,46.8,44.9,29.96,East,99,11.0,11.0,93,0.01,OVC,SKC,0.12,0.0,WeatherDisplay:10.37,2013-02-26 04:16:00,
2013-02-25 23:21:00,47.1,45.2,29.95,ENE,69,10.4,10.4,93,0.01,OVC,SKC,0.12,0.0,WeatherDisplay:10.37,2013-02-26 04:21:00,
2013-02-25 23:26:00,47.4,45.5,29.95,ESE,122,10.0,10.0,93,0.01,OVC,SKC,0.12,0.0,WeatherDisplay:10.37,2013-02-26 04:26:00,
2013-02-25 23:31:00,47.7,45.8,29.95,East,90,11.5,11.5,93,0.01,OVC,SKC,0.12,0.0,WeatherDisplay:10.37,2013-02-26 04:31:00,
2013-02-25 23:36:00,47.9,46.0,29.95,SE,141,10.4,10.4,93,0.02,RA,SKC,0.13,0.0,WeatherDisplay:10.37,2013-02-26 04:36:00,
2013-02-25 23:41:00,48.2,46.3,29.95,East,97,9.0,9.0,93,0.01,RA,SKC,0.13,0.0,WeatherDisplay:10.37,2013-02-26 04:41:00,
2013-02-25 23:46:00,48.3,46.4,29.95,ESE,115,10.4,10.4,93,0.01,OVC,SKC,0.13,0.0,WeatherDisplay:10.37,2013-02-26 04:46:00,
2013-02-25 23:51:00,48.5,46.6,29.95,SE,126,8.1,8.1,93,0.01,OVC,SKC,0.13,0.0,WeatherDisplay:10.37,2013-02-26 04:51:00,
2013-02-25 23:56:00,48.7,46.8,29.96,NNE,24,9.0,9.0,93,0.01,OVC,SKC,0.13,0.0,WeatherDisplay:10.37,2013-02-26 04:56:00,